createdAt,value
2023-04-18T00:02:04.182Z,16.83
2023-04-18T00:04:34.072Z,18.00
2023-04-18T00:07:01.698Z,17.63
2023-04-18T00:09:28.626Z,18.52
2023-04-18T00:11:55.894Z,18.65
2023-04-18T00:14:23.190Z,18.17
2023-04-18T00:16:51.723Z,18.75
2023-04-18T00:19:19.983Z,17.50
2023-04-18T00:21:47.158Z,18.17
2023-04-18T00:24:14.206Z,18.77
2023-04-18T00:26:41.742Z,18.73
2023-04-18T00:29:08.713Z,18.65
2023-04-18T00:31:35.959Z,18.70
2023-04-18T00:34:02.999Z,19.83
2023-04-18T00:36:30.137Z,19.65
2023-04-18T00:38:57.064Z,20.52
2023-04-18T00:41:27.661Z,20.80
2023-04-18T00:43:55.186Z,21.00
2023-04-18T00:46:22.408Z,20.48
2023-04-18T00:48:49.907Z,20.08
2023-04-18T00:51:17.528Z,20.40
2023-04-18T00:53:45.601Z,21.58
2023-04-18T00:56:13.304Z,21.55
2023-04-18T00:58:41.061Z,20.95
2023-04-18T01:01:09.757Z,22.73
2023-04-18T01:03:37.584Z,19.23
2023-04-18T01:06:05.280Z,20.73
2023-04-18T01:08:32.536Z,21.80
2023-04-18T01:10:59.727Z,20.35
2023-04-18T01:13:26.702Z,19.90
2023-04-18T01:15:55.781Z,20.77
2023-04-18T01:18:23.029Z,21.83
2023-04-18T01:20:53.227Z,19.98
2023-04-18T01:23:21.436Z,20.00
2023-04-18T01:25:52.016Z,21.00
2023-04-18T01:28:23.669Z,20.92
2023-04-18T01:30:51.116Z,20.63
2023-04-18T01:33:18.150Z,21.23
2023-04-18T01:35:45.388Z,20.45
2023-04-18T01:38:12.558Z,20.88
2023-04-18T01:40:39.980Z,21.67
2023-04-18T01:43:07.189Z,19.95
2023-04-18T01:45:34.452Z,21.75
2023-04-18T01:48:01.504Z,20.75
2023-04-18T01:50:28.798Z,22.02
2023-04-18T01:52:55.837Z,21.70
2023-04-18T01:55:23.209Z,20.92
2023-04-18T01:57:50.969Z,22.17
2023-04-18T02:00:20.353Z,22.27
2023-04-18T02:02:47.512Z,20.15
2023-04-18T02:05:15.019Z,21.83
2023-04-18T02:07:42.805Z,21.77
2023-04-18T02:10:11.453Z,23.13
2023-04-18T02:12:38.926Z,22.58
2023-04-18T02:15:07.041Z,21.98
2023-04-18T02:17:36.015Z,22.80
2023-04-18T02:20:03.669Z,21.73
2023-04-18T02:22:30.834Z,22.27
2023-04-18T02:24:58.057Z,22.77
2023-04-18T02:27:25.062Z,22.45
2023-04-18T02:29:52.242Z,22.55
2023-04-18T02:32:19.396Z,21.77
2023-04-18T02:34:46.909Z,23.13
2023-04-18T02:37:13.807Z,21.60
2023-04-18T02:39:41.158Z,22.25
2023-04-18T02:42:08.172Z,21.92
2023-04-18T02:44:35.462Z,24.38
2023-04-18T02:47:02.443Z,21.85
2023-04-18T02:49:29.738Z,21.42
2023-04-18T02:51:57.448Z,22.85
2023-04-18T02:54:26.824Z,22.05
2023-04-18T02:56:54.869Z,21.90
2023-04-18T02:59:22.047Z,21.23
2023-04-18T03:01:49.119Z,20.77
2023-04-18T03:04:16.649Z,22.20
2023-04-18T03:06:43.724Z,19.77
2023-04-18T03:09:11.159Z,21.17
2023-04-18T03:11:38.248Z,22.45
2023-04-18T03:14:05.475Z,20.23
2023-04-18T03:16:32.602Z,20.75
2023-04-18T03:18:59.890Z,20.85
2023-04-18T03:21:27.577Z,20.83
2023-04-18T03:23:54.753Z,22.05
2023-04-18T03:26:24.364Z,20.58
2023-04-18T03:28:51.661Z,19.15
2023-04-18T03:31:18.739Z,19.38
2023-04-18T03:33:47.011Z,20.42
2023-04-18T03:36:18.122Z,19.63
2023-04-18T03:38:45.617Z,18.75
2023-04-18T03:41:12.696Z,20.65
2023-04-18T03:43:39.901Z,20.85
2023-04-18T03:46:06.881Z,19.73
2023-04-18T03:48:37.374Z,19.88
2023-04-18T03:51:06.507Z,18.50
2023-04-18T03:53:33.689Z,19.52
2023-04-18T03:56:00.620Z,18.75
2023-04-18T03:58:27.825Z,17.98
2023-04-18T04:00:54.787Z,18.55
2023-04-18T04:03:22.235Z,18.17
2023-04-18T04:05:49.477Z,17.85
2023-04-18T04:08:16.664Z,17.85
2023-04-18T04:10:44.622Z,20.25
2023-04-18T04:13:11.743Z,18.65
2023-04-18T04:15:39.296Z,18.30
2023-04-18T04:18:07.121Z,19.40
2023-04-18T04:20:34.169Z,19.52
2023-04-18T04:23:07.192Z,19.98
2023-04-18T04:25:34.709Z,18.25
2023-04-18T04:28:03.033Z,18.35
2023-04-18T04:30:30.055Z,20.45
2023-04-18T04:32:57.274Z,19.85
2023-04-18T04:35:24.338Z,17.88
2023-04-18T04:37:52.816Z,18.50
2023-04-18T04:40:19.991Z,19.38
2023-04-18T04:42:49.234Z,19.00
2023-04-18T04:45:16.351Z,19.95
2023-04-18T04:47:43.832Z,18.77
2023-04-18T04:50:16.002Z,19.58
2023-04-18T04:52:43.825Z,18.92
2023-04-18T04:55:11.307Z,19.33
2023-04-18T04:57:38.748Z,17.83
2023-04-18T05:00:07.836Z,19.02
2023-04-18T05:02:35.416Z,19.17
2023-04-18T05:05:02.647Z,19.00
2023-04-18T05:07:30.932Z,19.63
2023-04-18T05:09:57.898Z,17.58
2023-04-18T05:12:25.161Z,18.38
2023-04-18T05:14:52.082Z,18.35
2023-04-18T05:17:19.313Z,18.00
2023-04-18T05:19:46.390Z,18.48
2023-04-18T05:22:13.733Z,18.17
2023-04-18T05:24:41.258Z,18.67
2023-04-18T05:27:08.807Z,18.42
2023-04-18T05:29:35.834Z,18.35
2023-04-18T05:32:03.473Z,18.50
2023-04-18T05:34:30.876Z,16.80
2023-04-18T05:36:58.272Z,18.05
2023-04-18T05:39:25.275Z,18.25
2023-04-18T05:41:53.003Z,16.42
2023-04-18T05:44:20.359Z,17.20
2023-04-18T05:46:51.351Z,17.50
2023-04-18T05:49:19.456Z,16.98
2023-04-18T05:51:49.810Z,16.35
2023-04-18T05:54:17.329Z,17.23
2023-04-18T05:56:45.092Z,16.38
2023-04-18T05:59:12.249Z,16.35
2023-04-18T06:01:39.452Z,15.68
2023-04-18T06:04:07.572Z,15.73
2023-04-18T06:06:36.235Z,16.33
2023-04-18T06:09:03.602Z,14.88
2023-04-18T06:11:33.568Z,15.65
2023-04-18T06:14:00.560Z,17.63
2023-04-18T06:16:27.913Z,15.60
2023-04-18T06:18:55.355Z,15.90
2023-04-18T06:21:22.515Z,15.98
2023-04-18T06:23:49.453Z,15.00
2023-04-18T06:26:17.298Z,14.48
2023-04-18T06:28:44.315Z,16.05
2023-04-18T06:31:11.576Z,14.75
2023-04-18T06:33:38.633Z,14.95
2023-04-18T06:36:07.241Z,16.20
2023-04-18T06:38:34.316Z,15.18
2023-04-18T06:41:01.547Z,15.45
2023-04-18T06:43:29.472Z,15.60
2023-04-18T06:45:57.081Z,15.85
2023-04-18T06:48:24.120Z,15.85
2023-04-18T06:50:51.560Z,15.80
2023-04-18T06:53:18.529Z,16.65
2023-04-18T06:55:45.864Z,16.70
2023-04-18T06:58:16.157Z,16.55
2023-04-18T07:00:43.988Z,15.63
2023-04-18T07:03:13.603Z,16.88
2023-04-18T07:05:41.019Z,15.57
2023-04-18T07:08:08.304Z,17.40
2023-04-18T07:10:35.936Z,16.05
2023-04-18T07:13:03.429Z,16.58
2023-04-18T07:15:31.200Z,15.40
2023-04-18T07:17:58.800Z,16.65
2023-04-18T07:20:27.116Z,15.85
2023-04-18T07:22:54.931Z,15.85
2023-04-18T07:25:22.688Z,15.38
2023-04-18T07:27:50.759Z,14.73
2023-04-18T07:30:18.759Z,14.25
2023-04-18T07:32:47.267Z,14.27
2023-04-18T07:35:15.400Z,14.25
2023-04-18T07:37:42.575Z,14.68
2023-04-18T07:40:10.806Z,15.10
2023-04-18T07:42:38.384Z,14.73
2023-04-18T07:45:06.805Z,16.42
2023-04-18T07:47:34.375Z,14.98
2023-04-18T07:50:04.226Z,15.63
2023-04-18T07:52:32.819Z,14.70
2023-04-18T07:55:00.150Z,15.10
2023-04-18T07:57:27.203Z,14.23
2023-04-18T07:59:54.932Z,15.40
2023-04-18T08:02:22.555Z,15.43
2023-04-18T08:04:52.410Z,14.70
2023-04-18T08:07:19.599Z,15.02
2023-04-18T08:09:50.858Z,14.00
2023-04-18T08:12:17.877Z,14.52
2023-04-18T08:14:45.201Z,13.52
2023-04-18T08:17:12.159Z,14.70
2023-04-18T08:19:39.421Z,12.57
2023-04-18T08:22:11.011Z,13.75
2023-04-18T08:24:46.447Z,13.77
2023-04-18T08:27:18.282Z,13.77
2023-04-18T08:29:45.717Z,12.93
2023-04-18T08:32:12.715Z,12.75
2023-04-18T08:34:40.293Z,13.45
2023-04-18T08:37:07.391Z,13.27
2023-04-18T08:39:35.438Z,12.45
2023-04-18T08:42:06.416Z,12.75
2023-04-18T08:44:34.367Z,12.02
2023-04-18T08:47:01.930Z,12.27
2023-04-18T08:49:33.721Z,11.70
2023-04-18T08:52:02.768Z,12.27
2023-04-18T08:54:31.560Z,11.85
2023-04-18T08:57:10.831Z,11.57
2023-04-18T08:59:38.760Z,12.07
2023-04-18T09:02:10.169Z,11.02
2023-04-18T09:04:49.199Z,10.13
2023-04-18T09:07:18.108Z,11.05
2023-04-18T09:09:51.914Z,10.30
2023-04-18T09:12:28.356Z,9.98
2023-04-18T09:15:16.856Z,10.43
2023-04-18T09:17:51.014Z,10.20
2023-04-18T09:20:41.150Z,9.60
2023-04-18T09:23:16.245Z,10.20
2023-04-18T09:28:29.269Z,10.23
2023-04-18T09:31:04.486Z,9.63
2023-04-18T09:33:37.050Z,9.05
2023-04-18T09:36:23.965Z,8.52
2023-04-18T09:38:56.306Z,7.65
2023-04-18T09:41:24.610Z,8.82
2023-04-18T09:44:15.047Z,8.73
2023-04-18T09:46:47.201Z,8.30
2023-04-18T09:49:16.898Z,8.25
2023-04-18T09:51:46.247Z,7.75
2023-04-18T09:54:18.530Z,8.60
2023-04-18T09:56:47.989Z,8.00
2023-04-18T09:59:38.386Z,8.25
2023-04-18T10:02:16.661Z,8.10
2023-04-18T10:04:47.648Z,11.77
2023-04-18T10:07:17.470Z,8.88
2023-04-18T10:09:50.118Z,8.70
2023-04-18T10:12:18.623Z,7.68
2023-04-18T10:14:46.362Z,7.93
2023-04-18T10:17:15.401Z,8.43
2023-04-18T10:19:44.353Z,7.50
2023-04-18T10:22:12.262Z,7.25
2023-04-18T10:24:50.570Z,8.02
2023-04-18T10:27:19.714Z,7.75
2023-04-18T10:29:52.426Z,7.65
2023-04-18T10:32:23.533Z,7.22
2023-04-18T10:34:53.490Z,7.03
2023-04-18T10:37:21.051Z,7.10
2023-04-18T10:39:54.118Z,6.93
2023-04-18T10:42:46.958Z,6.80
2023-04-18T10:45:36.593Z,6.93
2023-04-18T10:48:26.032Z,7.38
2023-04-18T10:51:18.363Z,6.55
2023-04-18T10:54:09.841Z,6.53
2023-04-18T10:56:37.279Z,6.05
2023-04-18T10:59:04.674Z,5.93
2023-04-18T11:01:37.047Z,6.47
2023-04-18T11:04:14.141Z,6.40
2023-04-18T11:06:49.604Z,6.57
2023-04-18T11:09:16.888Z,6.78
2023-04-18T11:11:44.457Z,6.78
2023-04-18T11:14:13.519Z,6.22
2023-04-18T11:16:40.928Z,6.63
2023-04-18T11:19:23.826Z,6.10
2023-04-18T11:21:51.785Z,6.22
2023-04-18T11:24:25.247Z,6.57
2023-04-18T11:26:56.068Z,6.10
2023-04-18T11:29:23.799Z,6.88
2023-04-18T11:31:56.874Z,7.20
2023-04-18T11:34:33.394Z,6.85
2023-04-18T11:37:00.443Z,6.43
2023-04-18T11:39:28.191Z,7.22
2023-04-18T11:41:57.293Z,5.70
2023-04-18T11:44:26.170Z,6.57
2023-04-18T11:46:53.895Z,6.75
2023-04-18T11:49:32.463Z,7.13
2023-04-18T11:52:01.291Z,6.70
2023-04-18T11:54:45.790Z,6.88
2023-04-18T11:57:22.078Z,5.60
2023-04-18T11:59:59.107Z,6.05
2023-04-18T12:02:39.166Z,7.05
2023-04-18T12:05:07.293Z,6.47
2023-04-18T12:07:48.370Z,6.85
2023-04-18T12:10:29.931Z,7.30
2023-04-18T12:13:00.262Z,7.95
2023-04-18T12:15:29.964Z,7.15
2023-04-18T12:18:06.003Z,7.63
2023-04-18T12:20:51.762Z,8.00
2023-04-18T12:26:21.243Z,7.47
2023-04-18T12:28:51.478Z,7.55
2023-04-18T12:31:19.004Z,7.47
2023-04-18T12:33:46.029Z,8.00
2023-04-18T12:36:13.307Z,8.02
2023-04-18T12:38:40.587Z,7.25
2023-04-18T12:41:08.261Z,9.15
2023-04-18T12:43:35.312Z,8.05
2023-04-18T12:46:02.766Z,7.53
2023-04-18T12:48:29.807Z,8.30
2023-04-18T12:50:57.264Z,7.65
2023-04-18T12:53:24.303Z,8.57
2023-04-18T12:55:51.991Z,8.65
2023-04-18T12:58:20.619Z,8.38
2023-04-18T13:00:47.928Z,8.20
2023-04-18T13:03:15.400Z,7.88
2023-04-18T13:05:43.044Z,8.90
2023-04-18T13:08:16.938Z,9.35
2023-04-18T13:10:47.668Z,8.73
2023-04-18T13:13:15.031Z,8.57
2023-04-18T13:15:42.631Z,8.57
2023-04-18T13:18:09.895Z,9.02
2023-04-18T13:20:37.749Z,9.00
2023-04-18T13:23:05.240Z,8.35
2023-04-18T13:25:32.664Z,9.02
2023-04-18T13:28:01.043Z,8.65
2023-04-18T13:30:28.797Z,8.30
2023-04-18T13:32:56.925Z,9.32
2023-04-18T13:35:24.488Z,9.10
2023-04-18T13:37:51.927Z,8.20
2023-04-18T13:40:19.464Z,7.80
2023-04-18T13:42:46.627Z,8.98
2023-04-18T13:45:14.067Z,8.00
2023-04-18T13:47:41.301Z,8.65
2023-04-18T13:50:09.429Z,9.27
2023-04-18T13:52:36.564Z,8.32
2023-04-18T13:55:04.450Z,8.68
2023-04-18T13:57:34.835Z,9.15
2023-04-18T14:00:06.567Z,9.43
2023-04-18T14:02:33.655Z,8.15
2023-04-18T14:05:01.723Z,8.73
2023-04-18T14:07:28.914Z,7.88
2023-04-18T14:09:56.198Z,8.27
2023-04-18T14:12:23.399Z,7.90
2023-04-18T14:14:51.226Z,7.70
2023-04-18T14:17:18.328Z,7.10
2023-04-18T14:19:45.783Z,9.25
2023-04-18T14:22:12.774Z,8.15
2023-04-18T14:24:40.092Z,8.10
2023-04-18T14:27:07.200Z,8.20
2023-04-18T14:29:34.728Z,7.75
2023-04-18T14:32:01.810Z,7.78
2023-04-18T14:34:31.069Z,7.00
2023-04-18T14:36:58.945Z,6.88
2023-04-18T14:39:26.392Z,6.72
2023-04-18T14:41:54.838Z,6.72
2023-04-18T14:44:22.198Z,7.32
2023-04-18T14:46:49.240Z,6.55
2023-04-18T14:49:16.808Z,6.75
2023-04-18T14:51:44.569Z,6.82
2023-04-18T14:54:12.055Z,7.10
2023-04-18T14:56:39.545Z,7.38
2023-04-18T14:59:06.970Z,6.07
2023-04-18T15:01:33.992Z,5.75
2023-04-18T15:04:03.581Z,6.78
2023-04-18T15:06:30.901Z,6.88
2023-04-18T15:08:58.326Z,6.85
2023-04-18T15:11:27.120Z,7.03
2023-04-18T15:13:54.768Z,6.20
2023-04-18T15:16:21.940Z,5.18
2023-04-18T15:18:49.321Z,5.55
2023-04-18T15:21:16.321Z,5.80
2023-04-18T15:23:44.637Z,6.30
2023-04-18T15:26:11.582Z,5.90
2023-04-18T15:28:39.180Z,5.90
2023-04-18T15:31:07.446Z,5.80
2023-04-18T15:33:35.000Z,5.38
2023-04-18T15:36:01.970Z,5.63
2023-04-18T15:38:32.976Z,5.38
2023-04-18T15:41:00.615Z,5.32
2023-04-18T15:43:31.066Z,5.95
2023-04-18T15:45:58.389Z,5.40
2023-04-18T15:48:25.661Z,5.10
2023-04-18T15:50:52.875Z,5.30
2023-04-18T15:53:20.120Z,5.85
2023-04-18T15:55:47.238Z,6.00
2023-04-18T15:58:14.481Z,9.82
2023-04-18T16:00:41.771Z,5.72
2023-04-18T16:03:10.469Z,6.10
2023-04-18T16:05:37.789Z,5.38
2023-04-18T16:08:05.073Z,5.10
2023-04-18T16:10:32.065Z,6.43
2023-04-18T16:12:59.587Z,5.22
2023-04-18T16:15:27.278Z,5.20
2023-04-18T16:17:54.907Z,5.80
2023-04-18T16:20:21.935Z,5.68
2023-04-18T16:22:49.592Z,5.65
2023-04-18T16:25:16.666Z,5.95
2023-04-18T16:27:43.962Z,5.47
2023-04-18T16:30:12.126Z,5.50
2023-04-18T16:32:39.735Z,6.20
2023-04-18T16:35:13.502Z,7.43
2023-04-18T16:37:41.386Z,6.68
2023-04-18T16:40:10.256Z,7.05
2023-04-18T16:42:37.574Z,6.18
2023-04-18T16:45:05.145Z,6.60
2023-04-18T16:47:32.561Z,6.70
2023-04-18T16:49:59.533Z,7.22
2023-04-18T16:52:27.579Z,6.70
2023-04-18T16:54:54.696Z,6.57
2023-04-18T16:57:21.945Z,7.35
2023-04-18T16:59:49.642Z,7.93
2023-04-18T17:02:20.413Z,7.70
2023-04-18T17:04:48.376Z,7.07
2023-04-18T17:07:15.859Z,8.18
2023-04-18T17:09:43.061Z,7.97
2023-04-18T17:12:10.600Z,8.05
2023-04-18T17:14:37.749Z,7.53
2023-04-18T17:17:08.574Z,8.07
2023-04-18T17:19:35.539Z,8.45
2023-04-18T17:22:03.820Z,8.27
2023-04-18T17:24:30.672Z,9.52
2023-04-18T17:26:58.299Z,8.50
2023-04-18T17:29:26.570Z,8.55
2023-04-18T17:31:54.087Z,8.77
2023-04-18T17:34:21.418Z,8.88
2023-04-18T17:36:49.582Z,8.60
2023-04-18T17:39:17.706Z,8.52
2023-04-18T17:41:47.564Z,9.32
2023-04-18T17:44:15.560Z,8.77
2023-04-18T17:46:48.859Z,10.00
2023-04-18T17:49:35.608Z,8.68
2023-04-18T17:52:04.592Z,9.23
2023-04-18T17:55:03.920Z,8.65
2023-04-18T17:58:00.536Z,9.07
2023-04-18T18:00:28.328Z,8.90
2023-04-18T18:02:55.892Z,8.85
2023-04-18T18:05:23.370Z,9.05
2023-04-18T18:07:52.584Z,9.07
2023-04-18T18:10:24.523Z,10.02
2023-04-18T18:12:52.408Z,8.93
2023-04-18T18:15:21.586Z,9.32
2023-04-18T18:17:53.511Z,9.82
2023-04-18T18:20:21.331Z,9.23
2023-04-18T18:22:50.635Z,8.77
2023-04-18T18:25:24.820Z,9.25
2023-04-18T18:27:58.780Z,9.52
2023-04-18T18:30:26.226Z,11.07
2023-04-18T18:33:25.407Z,10.23
2023-04-18T18:35:54.610Z,10.98
2023-04-18T18:38:22.457Z,9.80
2023-04-18T18:44:00.062Z,10.73
2023-04-18T18:46:59.054Z,10.25
2023-04-18T18:54:26.958Z,12.10
2023-04-18T18:56:53.987Z,12.52
2023-04-18T18:59:21.316Z,11.90
2023-04-18T19:02:20.368Z,12.18
2023-04-18T19:09:21.349Z,12.20
2023-04-18T19:11:48.684Z,12.32
2023-04-18T19:14:16.151Z,11.82
2023-04-18T19:16:43.593Z,13.05
2023-04-18T19:19:11.603Z,12.68
2023-04-18T19:21:45.723Z,12.73
2023-04-18T19:24:13.554Z,12.65
2023-04-18T19:26:41.930Z,12.15
2023-04-18T19:29:11.570Z,14.52
2023-04-18T19:31:38.929Z,13.77
2023-04-18T19:34:05.952Z,14.68
2023-04-18T19:36:33.303Z,13.27
2023-04-18T19:39:00.540Z,13.93
2023-04-18T19:41:28.038Z,15.27
2023-04-18T19:43:55.018Z,15.77
2023-04-18T19:46:22.220Z,14.23
2023-04-18T19:48:49.271Z,14.40
2023-04-18T19:51:16.574Z,15.30
2023-04-18T19:53:43.521Z,14.90
2023-04-18T19:56:12.498Z,15.93
2023-04-18T19:58:45.282Z,16.40
2023-04-18T20:01:14.297Z,16.80
2023-04-18T20:03:41.919Z,16.65
2023-04-18T20:06:11.149Z,15.70
2023-04-18T20:08:41.615Z,16.25
2023-04-18T20:11:11.543Z,16.90
2023-04-18T20:13:38.595Z,15.65
2023-04-18T20:16:07.539Z,16.25
2023-04-18T20:18:37.946Z,16.63
2023-04-18T20:21:07.395Z,15.90
2023-04-18T20:23:36.124Z,14.80
2023-04-18T20:26:06.306Z,17.15
2023-04-18T20:28:33.768Z,16.45
2023-04-18T20:31:02.556Z,16.70
2023-04-18T20:33:29.594Z,16.95
2023-04-18T20:35:58.809Z,17.20
2023-04-18T20:38:29.587Z,18.70
2023-04-18T20:40:58.883Z,17.88
2023-04-18T20:43:26.886Z,18.17
2023-04-18T20:45:54.610Z,18.52
2023-04-18T20:48:21.776Z,17.40
2023-04-18T20:50:52.379Z,20.40
2023-04-18T20:53:21.829Z,18.80
2023-04-18T20:55:49.266Z,20.10
2023-04-18T20:58:16.901Z,18.35
2023-04-18T21:00:45.080Z,18.40
2023-04-18T21:03:16.862Z,19.05
2023-04-18T21:05:45.220Z,19.15
2023-04-18T21:08:12.483Z,19.63
2023-04-18T21:10:40.024Z,20.05
2023-04-18T21:13:07.260Z,20.02
2023-04-18T21:15:35.887Z,19.98
2023-04-18T21:18:03.103Z,20.17
2023-04-18T21:20:30.536Z,21.02
2023-04-18T21:22:59.832Z,19.98
2023-04-18T21:25:27.068Z,19.48
2023-04-18T21:27:54.020Z,20.40
2023-04-18T21:30:21.491Z,20.65
2023-04-18T21:32:50.992Z,20.50
2023-04-18T21:35:19.823Z,21.02
2023-04-18T21:37:48.275Z,21.35
2023-04-18T21:40:16.047Z,21.33
2023-04-18T21:42:43.303Z,20.50
2023-04-18T21:45:11.229Z,19.88
2023-04-18T21:47:38.566Z,21.65
2023-04-18T21:50:06.794Z,22.80
2023-04-18T21:52:33.880Z,22.00
2023-04-18T21:55:01.106Z,20.85
2023-04-18T21:57:28.314Z,21.80
2023-04-18T21:59:57.774Z,22.02
2023-04-18T22:02:26.926Z,21.23
2023-04-18T22:04:54.266Z,20.83
2023-04-18T22:07:21.544Z,22.30
2023-04-18T22:09:48.806Z,21.48
2023-04-18T22:12:15.804Z,22.20
2023-04-18T22:14:48.219Z,21.50
2023-04-18T22:17:17.974Z,21.77
2023-04-18T22:19:49.520Z,20.85
2023-04-18T22:22:20.945Z,22.15
2023-04-18T22:24:51.803Z,22.52
2023-04-18T22:27:21.748Z,21.38
2023-04-18T22:29:48.960Z,21.65
2023-04-18T22:32:15.996Z,22.10
2023-04-18T22:34:45.139Z,21.65
2023-04-18T22:37:12.088Z,23.83
2023-04-18T22:39:39.286Z,22.48
2023-04-18T22:42:06.226Z,21.95
2023-04-18T22:44:33.374Z,21.58
2023-04-18T22:47:00.251Z,23.27
2023-04-18T22:49:27.668Z,22.80
2023-04-18T22:51:54.646Z,24.17
2023-04-18T22:54:21.996Z,21.35
2023-04-18T22:56:50.278Z,21.58
2023-04-18T22:59:18.032Z,22.35
2023-04-18T23:01:45.082Z,23.13
2023-04-18T23:04:12.448Z,22.15
2023-04-18T23:06:39.579Z,23.95
2023-04-18T23:09:11.037Z,22.38
2023-04-18T23:11:38.080Z,22.92
2023-04-18T23:14:06.369Z,22.27
2023-04-18T23:16:33.237Z,23.83
2023-04-18T23:19:00.445Z,22.95
2023-04-18T23:21:28.124Z,21.75
2023-04-18T23:23:55.427Z,22.27
2023-04-18T23:26:23.979Z,21.52
2023-04-18T23:28:52.178Z,22.30
2023-04-18T23:31:19.673Z,22.00
2023-04-18T23:33:47.077Z,22.65
2023-04-18T23:36:14.097Z,20.95
2023-04-18T23:38:41.349Z,20.63
2023-04-18T23:41:08.636Z,20.67
2023-04-18T23:43:35.844Z,21.85
2023-04-18T23:46:02.865Z,23.30
2023-04-18T23:48:30.050Z,22.02
2023-04-18T23:50:57.013Z,22.42
2023-04-18T23:53:24.979Z,20.30
2023-04-18T23:55:53.616Z,21.20
2023-04-18T23:58:26.999Z,20.73
